sensor_id;sensor_type;location;lat;lon;timestamp;temperature;humidity
2447;DHT22;26430;48.818;9.244;2023-08-06T00:01:49;16.20;99.90
2447;DHT22;26430;48.818;9.244;2023-08-06T00:04:15;15.90;99.90
2447;DHT22;26430;48.818;9.244;2023-08-06T00:06:41;15.80;99.90
2447;DHT22;26430;48.818;9.244;2023-08-06T00:09:07;15.70;99.90
2447;DHT22;26430;48.818;9.244;2023-08-06T00:11:32;15.70;99.90
2447;DHT22;26430;48.818;9.244;2023-08-06T00:13:58;15.80;99.90
2447;DHT22;26430;48.818;9.244;2023-08-06T00:16:23;16.00;99.90
2447;DHT22;26430;48.818;9.244;2023-08-06T00:18:49;16.00;99.90
2447;DHT22;26430;48.818;9.244;2023-08-06T00:21:14;16.00;99.90
2447;DHT22;26430;48.818;9.244;2023-08-06T00:23:40;16.10;99.90
2447;DHT22;26430;48.818;9.244;2023-08-06T00:26:06;16.10;99.90
2447;DHT22;26430;48.818;9.244;2023-08-06T00:28:32;16.00;99.90
2447;DHT22;26430;48.818;9.244;2023-08-06T00:30:57;15.90;99.90
2447;DHT22;26430;48.818;9.244;2023-08-06T00:33:24;15.90;99.90
2447;DHT22;26430;48.818;9.244;2023-08-06T00:35:49;15.70;99.90
2447;DHT22;26430;48.818;9.244;2023-08-06T00:38:15;15.60;99.90
2447;DHT22;26430;48.818;9.244;2023-08-06T00:40:40;15.70;99.90
2447;DHT22;26430;48.818;9.244;2023-08-06T00:43:06;15.50;99.90
2447;DHT22;26430;48.818;9.244;2023-08-06T00:45:35;15.50;99.90
2447;DHT22;26430;48.818;9.244;2023-08-06T00:48:01;15.50;99.90
2447;DHT22;26430;48.818;9.244;2023-08-06T00:50:27;15.50;99.90
2447;DHT22;26430;48.818;9.244;2023-08-06T00:52:53;15.40;99.90
2447;DHT22;26430;48.818;9.244;2023-08-06T00:55:19;15.50;99.90
2447;DHT22;26430;48.818;9.244;2023-08-06T00:57:45;15.40;99.90
2447;DHT22;26430;48.818;9.244;2023-08-06T01:00:11;15.50;99.90
2447;DHT22;26430;48.818;9.244;2023-08-06T01:02:37;15.40;99.90
2447;DHT22;26430;48.818;9.244;2023-08-06T01:05:03;15.60;99.90
2447;DHT22;26430;48.818;9.244;2023-08-06T01:10:32;15.60;99.90
2447;DHT22;26430;48.818;9.244;2023-08-06T01:13:18;15.60;99.90
2447;DHT22;26430;48.818;9.244;2023-08-06T01:15:57;15.60;99.90
2447;DHT22;26430;48.818;9.244;2023-08-06T01:18:23;15.70;99.90
2447;DHT22;26430;48.818;9.244;2023-08-06T01:20:49;15.70;99.90
2447;DHT22;26430;48.818;9.244;2023-08-06T01:23:18;15.70;99.90
2447;DHT22;26430;48.818;9.244;2023-08-06T01:25:53;15.60;99.90
2447;DHT22;26430;48.818;9.244;2023-08-06T01:28:44;15.70;99.90
2447;DHT22;26430;48.818;9.244;2023-08-06T01:31:38;15.60;99.90
2447;DHT22;26430;48.818;9.244;2023-08-06T01:34:06;15.60;99.90
2447;DHT22;26430;48.818;9.244;2023-08-06T01:36:32;15.60;99.90
2447;DHT22;26430;48.818;9.244;2023-08-06T01:38:59;15.60;99.90
2447;DHT22;26430;48.818;9.244;2023-08-06T01:41:25;15.70;99.90
2447;DHT22;26430;48.818;9.244;2023-08-06T01:43:50;15.70;99.90
2447;DHT22;26430;48.818;9.244;2023-08-06T01:46:16;15.60;99.90
2447;DHT22;26430;48.818;9.244;2023-08-06T01:48:42;15.50;99.90
2447;DHT22;26430;48.818;9.244;2023-08-06T01:51:07;15.40;99.90
2447;DHT22;26430;48.818;9.244;2023-08-06T01:53:33;15.30;99.90
2447;DHT22;26430;48.818;9.244;2023-08-06T01:55:59;15.30;99.90
2447;DHT22;26430;48.818;9.244;2023-08-06T01:58:25;15.40;99.90
2447;DHT22;26430;48.818;9.244;2023-08-06T02:00:50;15.20;99.90
2447;DHT22;26430;48.818;9.244;2023-08-06T02:03:16;15.20;99.90
2447;DHT22;26430;48.818;9.244;2023-08-06T02:05:41;15.10;99.90
2447;DHT22;26430;48.818;9.244;2023-08-06T02:08:07;15.00;99.90
2447;DHT22;26430;48.818;9.244;2023-08-06T02:10:33;15.00;99.90
2447;DHT22;26430;48.818;9.244;2023-08-06T02:12:58;15.00;99.90
2447;DHT22;26430;48.818;9.244;2023-08-06T02:15:24;14.90;99.90
2447;DHT22;26430;48.818;9.244;2023-08-06T02:17:50;14.90;99.90
2447;DHT22;26430;48.818;9.244;2023-08-06T02:20:16;14.80;99.90
2447;DHT22;26430;48.818;9.244;2023-08-06T02:22:41;14.70;99.90
2447;DHT22;26430;48.818;9.244;2023-08-06T02:25:07;14.80;99.90
2447;DHT22;26430;48.818;9.244;2023-08-06T02:27:32;14.70;99.90
2447;DHT22;26430;48.818;9.244;2023-08-06T02:29:58;14.80;99.90
2447;DHT22;26430;48.818;9.244;2023-08-06T02:32:24;14.70;99.90
2447;DHT22;26430;48.818;9.244;2023-08-06T02:34:49;14.70;99.90
2447;DHT22;26430;48.818;9.244;2023-08-06T02:37:15;14.60;99.90
2447;DHT22;26430;48.818;9.244;2023-08-06T02:39:41;14.50;99.90
2447;DHT22;26430;48.818;9.244;2023-08-06T02:42:07;14.40;99.90
2447;DHT22;26430;48.818;9.244;2023-08-06T02:44:33;14.50;99.90
2447;DHT22;26430;48.818;9.244;2023-08-06T02:46:59;14.40;99.90
2447;DHT22;26430;48.818;9.244;2023-08-06T02:49:25;14.40;99.90
2447;DHT22;26430;48.818;9.244;2023-08-06T02:51:50;14.40;99.90
2447;DHT22;26430;48.818;9.244;2023-08-06T02:54:16;14.40;99.90
2447;DHT22;26430;48.818;9.244;2023-08-06T02:56:45;14.40;99.90
2447;DHT22;26430;48.818;9.244;2023-08-06T02:59:15;14.30;99.90
2447;DHT22;26430;48.818;9.244;2023-08-06T03:01:40;14.30;99.90
2447;DHT22;26430;48.818;9.244;2023-08-06T03:04:06;14.30;99.90
2447;DHT22;26430;48.818;9.244;2023-08-06T03:06:32;14.20;99.90
2447;DHT22;26430;48.818;9.244;2023-08-06T03:08:57;14.40;99.90
2447;DHT22;26430;48.818;9.244;2023-08-06T03:11:23;14.20;99.90
2447;DHT22;26430;48.818;9.244;2023-08-06T03:13:48;14.40;99.90
2447;DHT22;26430;48.818;9.244;2023-08-06T03:16:14;14.30;99.90
2447;DHT22;26430;48.818;9.244;2023-08-06T03:18:40;14.40;99.90
2447;DHT22;26430;48.818;9.244;2023-08-06T03:21:05;14.20;99.90
2447;DHT22;26430;48.818;9.244;2023-08-06T03:23:31;14.20;99.90
2447;DHT22;26430;48.818;9.244;2023-08-06T03:26:01;14.20;99.90
2447;DHT22;26430;48.818;9.244;2023-08-06T03:28:28;14.10;99.90
2447;DHT22;26430;48.818;9.244;2023-08-06T03:31:03;14.20;99.90
2447;DHT22;26430;48.818;9.244;2023-08-06T03:33:29;14.10;99.90
2447;DHT22;26430;48.818;9.244;2023-08-06T03:35:55;14.20;99.90
2447;DHT22;26430;48.818;9.244;2023-08-06T03:38:21;14.20;99.90
2447;DHT22;26430;48.818;9.244;2023-08-06T03:40:48;14.20;99.90
2447;DHT22;26430;48.818;9.244;2023-08-06T03:43:13;14.30;99.90
2447;DHT22;26430;48.818;9.244;2023-08-06T03:45:40;14.30;99.90
2447;DHT22;26430;48.818;9.244;2023-08-06T03:48:05;14.30;99.90
2447;DHT22;26430;48.818;9.244;2023-08-06T03:50:31;14.30;99.90
2447;DHT22;26430;48.818;9.244;2023-08-06T03:52:56;14.20;99.90
2447;DHT22;26430;48.818;9.244;2023-08-06T03:55:22;14.30;99.90
2447;DHT22;26430;48.818;9.244;2023-08-06T03:57:48;14.20;99.90
2447;DHT22;26430;48.818;9.244;2023-08-06T04:00:13;14.20;99.90
2447;DHT22;26430;48.818;9.244;2023-08-06T04:02:39;14.10;99.90
2447;DHT22;26430;48.818;9.244;2023-08-06T04:05:05;14.10;99.90
2447;DHT22;26430;48.818;9.244;2023-08-06T04:07:30;14.10;99.90
2447;DHT22;26430;48.818;9.244;2023-08-06T04:10:00;14.10;99.90
2447;DHT22;26430;48.818;9.244;2023-08-06T04:12:27;14.20;99.90
2447;DHT22;26430;48.818;9.244;2023-08-06T04:14:53;14.00;99.90
2447;DHT22;26430;48.818;9.244;2023-08-06T04:17:20;14.20;99.90
2447;DHT22;26430;48.818;9.244;2023-08-06T04:19:50;14.10;99.90
2447;DHT22;26430;48.818;9.244;2023-08-06T04:22:16;14.30;99.90
2447;DHT22;26430;48.818;9.244;2023-08-06T04:24:42;14.30;99.90
2447;DHT22;26430;48.818;9.244;2023-08-06T04:27:11;14.50;99.90
2447;DHT22;26430;48.818;9.244;2023-08-06T04:29:37;14.50;99.90
2447;DHT22;26430;48.818;9.244;2023-08-06T04:32:05;14.60;99.90
2447;DHT22;26430;48.818;9.244;2023-08-06T04:34:31;14.80;99.90
2447;DHT22;26430;48.818;9.244;2023-08-06T04:36:56;15.00;99.90
2447;DHT22;26430;48.818;9.244;2023-08-06T04:39:22;15.20;99.90
2447;DHT22;26430;48.818;9.244;2023-08-06T04:41:48;15.20;99.90
2447;DHT22;26430;48.818;9.244;2023-08-06T04:44:13;15.30;99.90
2447;DHT22;26430;48.818;9.244;2023-08-06T04:46:39;15.20;99.90
2447;DHT22;26430;48.818;9.244;2023-08-06T04:49:04;15.20;99.90
2447;DHT22;26430;48.818;9.244;2023-08-06T04:51:30;15.20;99.90
2447;DHT22;26430;48.818;9.244;2023-08-06T04:53:57;15.20;99.90
2447;DHT22;26430;48.818;9.244;2023-08-06T04:56:22;15.20;99.90
2447;DHT22;26430;48.818;9.244;2023-08-06T04:58:48;15.20;99.90
2447;DHT22;26430;48.818;9.244;2023-08-06T05:01:14;15.20;99.90
2447;DHT22;26430;48.818;9.244;2023-08-06T05:03:39;15.30;99.90
2447;DHT22;26430;48.818;9.244;2023-08-06T05:06:05;15.30;99.90
2447;DHT22;26430;48.818;9.244;2023-08-06T05:08:31;15.50;99.90
2447;DHT22;26430;48.818;9.244;2023-08-06T05:10:56;15.40;99.90
2447;DHT22;26430;48.818;9.244;2023-08-06T05:13:22;15.40;99.90
2447;DHT22;26430;48.818;9.244;2023-08-06T05:15:48;15.60;99.90
2447;DHT22;26430;48.818;9.244;2023-08-06T05:18:14;15.80;99.90
2447;DHT22;26430;48.818;9.244;2023-08-06T05:20:41;15.90;99.90
2447;DHT22;26430;48.818;9.244;2023-08-06T05:23:06;16.00;99.90
2447;DHT22;26430;48.818;9.244;2023-08-06T05:25:34;15.90;99.90
2447;DHT22;26430;48.818;9.244;2023-08-06T05:28:01;15.80;99.90
2447;DHT22;26430;48.818;9.244;2023-08-06T05:30:27;15.70;99.90
2447;DHT22;26430;48.818;9.244;2023-08-06T05:32:52;15.80;99.90
2447;DHT22;26430;48.818;9.244;2023-08-06T05:35:18;15.60;99.90
2447;DHT22;26430;48.818;9.244;2023-08-06T05:37:43;15.30;99.90
2447;DHT22;26430;48.818;9.244;2023-08-06T05:40:09;15.20;99.90
2447;DHT22;26430;48.818;9.244;2023-08-06T05:42:35;15.30;99.90
2447;DHT22;26430;48.818;9.244;2023-08-06T05:45:00;15.30;99.90
2447;DHT22;26430;48.818;9.244;2023-08-06T05:47:26;15.10;99.90
2447;DHT22;26430;48.818;9.244;2023-08-06T05:49:51;15.10;99.90
2447;DHT22;26430;48.818;9.244;2023-08-06T05:52:17;15.10;99.90
2447;DHT22;26430;48.818;9.244;2023-08-06T05:54:42;15.30;99.90
2447;DHT22;26430;48.818;9.244;2023-08-06T05:57:08;15.30;99.90
2447;DHT22;26430;48.818;9.244;2023-08-06T05:59:33;15.50;99.90
2447;DHT22;26430;48.818;9.244;2023-08-06T06:01:59;15.60;99.90
2447;DHT22;26430;48.818;9.244;2023-08-06T06:04:25;15.50;99.90
2447;DHT22;26430;48.818;9.244;2023-08-06T06:06:51;15.60;99.90
2447;DHT22;26430;48.818;9.244;2023-08-06T06:09:16;15.10;99.90
2447;DHT22;26430;48.818;9.244;2023-08-06T06:11:42;15.20;99.90
2447;DHT22;26430;48.818;9.244;2023-08-06T06:14:07;15.10;99.90
2447;DHT22;26430;48.818;9.244;2023-08-06T06:16:34;15.20;99.90
2447;DHT22;26430;48.818;9.244;2023-08-06T06:18:59;15.20;99.90
2447;DHT22;26430;48.818;9.244;2023-08-06T06:21:25;15.00;99.90
2447;DHT22;26430;48.818;9.244;2023-08-06T06:23:51;14.90;99.90
2447;DHT22;26430;48.818;9.244;2023-08-06T06:26:19;14.80;99.90
2447;DHT22;26430;48.818;9.244;2023-08-06T06:28:45;14.70;99.90
2447;DHT22;26430;48.818;9.244;2023-08-06T06:31:10;14.60;99.90
2447;DHT22;26430;48.818;9.244;2023-08-06T06:33:36;14.60;99.90
2447;DHT22;26430;48.818;9.244;2023-08-06T06:36:02;14.60;99.90
2447;DHT22;26430;48.818;9.244;2023-08-06T06:38:29;14.50;99.90
2447;DHT22;26430;48.818;9.244;2023-08-06T06:40:56;14.60;99.90
2447;DHT22;26430;48.818;9.244;2023-08-06T06:43:22;14.70;99.90
2447;DHT22;26430;48.818;9.244;2023-08-06T06:45:56;14.70;99.90
2447;DHT22;26430;48.818;9.244;2023-08-06T06:48:23;14.80;99.90
2447;DHT22;26430;48.818;9.244;2023-08-06T06:50:48;14.80;99.90
2447;DHT22;26430;48.818;9.244;2023-08-06T06:53:14;14.80;99.90
2447;DHT22;26430;48.818;9.244;2023-08-06T06:55:40;14.70;99.90
2447;DHT22;26430;48.818;9.244;2023-08-06T06:58:05;14.80;99.90
2447;DHT22;26430;48.818;9.244;2023-08-06T07:00:31;14.80;99.90
2447;DHT22;26430;48.818;9.244;2023-08-06T07:02:56;15.00;99.90
2447;DHT22;26430;48.818;9.244;2023-08-06T07:05:22;14.80;99.90
2447;DHT22;26430;48.818;9.244;2023-08-06T07:07:47;15.00;99.90
2447;DHT22;26430;48.818;9.244;2023-08-06T07:10:13;15.00;99.90
2447;DHT22;26430;48.818;9.244;2023-08-06T07:12:39;15.00;99.90
2447;DHT22;26430;48.818;9.244;2023-08-06T07:15:07;14.80;99.90
2447;DHT22;26430;48.818;9.244;2023-08-06T07:17:33;14.90;99.90
2447;DHT22;26430;48.818;9.244;2023-08-06T07:19:58;14.90;99.90
2447;DHT22;26430;48.818;9.244;2023-08-06T07:22:24;14.70;99.90
2447;DHT22;26430;48.818;9.244;2023-08-06T07:24:49;14.80;99.90
2447;DHT22;26430;48.818;9.244;2023-08-06T07:27:15;14.70;99.90
2447;DHT22;26430;48.818;9.244;2023-08-06T07:29:40;14.60;99.90
2447;DHT22;26430;48.818;9.244;2023-08-06T07:32:07;14.60;99.90
2447;DHT22;26430;48.818;9.244;2023-08-06T07:34:33;14.50;99.90
2447;DHT22;26430;48.818;9.244;2023-08-06T07:36:59;14.60;99.90
2447;DHT22;26430;48.818;9.244;2023-08-06T07:39:25;14.50;99.90
2447;DHT22;26430;48.818;9.244;2023-08-06T07:41:51;14.40;99.90
2447;DHT22;26430;48.818;9.244;2023-08-06T07:44:16;14.30;99.90
2447;DHT22;26430;48.818;9.244;2023-08-06T07:46:42;14.40;99.90
2447;DHT22;26430;48.818;9.244;2023-08-06T07:49:09;14.50;99.90
2447;DHT22;26430;48.818;9.244;2023-08-06T07:51:36;14.40;99.90
2447;DHT22;26430;48.818;9.244;2023-08-06T07:54:01;14.50;99.90
2447;DHT22;26430;48.818;9.244;2023-08-06T07:56:27;14.50;99.90
2447;DHT22;26430;48.818;9.244;2023-08-06T07:58:53;14.50;99.90
2447;DHT22;26430;48.818;9.244;2023-08-06T08:01:18;14.60;99.90
2447;DHT22;26430;48.818;9.244;2023-08-06T08:03:44;14.60;99.90
2447;DHT22;26430;48.818;9.244;2023-08-06T08:06:09;14.70;99.90
2447;DHT22;26430;48.818;9.244;2023-08-06T08:08:35;14.80;99.90
2447;DHT22;26430;48.818;9.244;2023-08-06T08:11:04;14.70;99.90
2447;DHT22;26430;48.818;9.244;2023-08-06T08:13:30;14.60;99.90
2447;DHT22;26430;48.818;9.244;2023-08-06T08:16:00;14.80;99.90
2447;DHT22;26430;48.818;9.244;2023-08-06T08:18:26;14.80;99.90
2447;DHT22;26430;48.818;9.244;2023-08-06T08:20:51;14.80;99.90
2447;DHT22;26430;48.818;9.244;2023-08-06T08:23:17;14.90;99.90
2447;DHT22;26430;48.818;9.244;2023-08-06T08:25:43;15.00;99.90
2447;DHT22;26430;48.818;9.244;2023-08-06T08:28:08;15.10;99.90
2447;DHT22;26430;48.818;9.244;2023-08-06T08:30:34;15.30;99.90
2447;DHT22;26430;48.818;9.244;2023-08-06T08:32:59;15.30;99.90
2447;DHT22;26430;48.818;9.244;2023-08-06T08:35:25;15.40;99.90
2447;DHT22;26430;48.818;9.244;2023-08-06T08:37:51;15.40;99.90
2447;DHT22;26430;48.818;9.244;2023-08-06T08:40:17;15.40;99.90
2447;DHT22;26430;48.818;9.244;2023-08-06T08:42:43;15.50;99.90
2447;DHT22;26430;48.818;9.244;2023-08-06T08:45:13;15.60;99.90
2447;DHT22;26430;48.818;9.244;2023-08-06T08:47:40;15.50;99.90
2447;DHT22;26430;48.818;9.244;2023-08-06T08:50:08;15.50;99.90
2447;DHT22;26430;48.818;9.244;2023-08-06T08:52:36;15.60;99.90
2447;DHT22;26430;48.818;9.244;2023-08-06T08:55:02;15.60;99.90
2447;DHT22;26430;48.818;9.244;2023-08-06T08:57:27;15.90;99.90
2447;DHT22;26430;48.818;9.244;2023-08-06T08:59:53;16.00;99.90
2447;DHT22;26430;48.818;9.244;2023-08-06T09:02:21;15.70;99.90
2447;DHT22;26430;48.818;9.244;2023-08-06T09:04:48;15.40;99.90
2447;DHT22;26430;48.818;9.244;2023-08-06T09:07:17;15.40;99.90
2447;DHT22;26430;48.818;9.244;2023-08-06T09:09:43;15.30;99.90
2447;DHT22;26430;48.818;9.244;2023-08-06T09:12:14;15.30;99.90
2447;DHT22;26430;48.818;9.244;2023-08-06T09:14:40;15.20;99.90
2447;DHT22;26430;48.818;9.244;2023-08-06T09:17:06;15.20;99.90
2447;DHT22;26430;48.818;9.244;2023-08-06T09:19:31;15.20;99.90
2447;DHT22;26430;48.818;9.244;2023-08-06T09:21:58;15.10;99.90
2447;DHT22;26430;48.818;9.244;2023-08-06T09:24:24;15.00;99.90
2447;DHT22;26430;48.818;9.244;2023-08-06T09:26:50;15.10;99.90
2447;DHT22;26430;48.818;9.244;2023-08-06T09:29:15;15.20;99.90
2447;DHT22;26430;48.818;9.244;2023-08-06T09:31:44;15.20;99.90
2447;DHT22;26430;48.818;9.244;2023-08-06T09:36:51;15.50;99.90
2447;DHT22;26430;48.818;9.244;2023-08-06T09:39:18;15.50;99.90
2447;DHT22;26430;48.818;9.244;2023-08-06T09:41:44;15.50;99.90
2447;DHT22;26430;48.818;9.244;2023-08-06T09:44:36;15.50;99.90
2447;DHT22;26430;48.818;9.244;2023-08-06T09:47:06;15.40;99.90
2447;DHT22;26430;48.818;9.244;2023-08-06T09:52:00;15.40;99.90
2447;DHT22;26430;48.818;9.244;2023-08-06T09:54:27;15.40;99.90
2447;DHT22;26430;48.818;9.244;2023-08-06T09:56:54;15.40;99.90
2447;DHT22;26430;48.818;9.244;2023-08-06T09:59:20;15.40;99.90
2447;DHT22;26430;48.818;9.244;2023-08-06T10:01:46;15.50;99.90
2447;DHT22;26430;48.818;9.244;2023-08-06T10:04:14;15.60;99.90
2447;DHT22;26430;48.818;9.244;2023-08-06T10:06:42;15.60;99.90
2447;DHT22;26430;48.818;9.244;2023-08-06T10:09:08;15.70;99.90
2447;DHT22;26430;48.818;9.244;2023-08-06T10:11:37;15.60;99.90
2447;DHT22;26430;48.818;9.244;2023-08-06T10:14:27;15.60;99.90
2447;DHT22;26430;48.818;9.244;2023-08-06T10:16:54;15.50;99.90
2447;DHT22;26430;48.818;9.244;2023-08-06T10:19:21;15.40;99.90
2447;DHT22;26430;48.818;9.244;2023-08-06T10:22:10;15.50;99.90
2447;DHT22;26430;48.818;9.244;2023-08-06T10:24:52;15.50;99.90
2447;DHT22;26430;48.818;9.244;2023-08-06T10:27:29;15.70;99.90
2447;DHT22;26430;48.818;9.244;2023-08-06T10:29:56;15.70;99.90
2447;DHT22;26430;48.818;9.244;2023-08-06T10:32:21;15.70;99.90
2447;DHT22;26430;48.818;9.244;2023-08-06T10:35:06;15.60;99.90
2447;DHT22;26430;48.818;9.244;2023-08-06T10:37:36;15.60;99.90
2447;DHT22;26430;48.818;9.244;2023-08-06T10:40:03;15.70;99.90
2447;DHT22;26430;48.818;9.244;2023-08-06T10:42:29;15.70;99.90
2447;DHT22;26430;48.818;9.244;2023-08-06T10:45:14;15.70;99.90
2447;DHT22;26430;48.818;9.244;2023-08-06T10:47:41;15.80;99.90
2447;DHT22;26430;48.818;9.244;2023-08-06T10:50:07;16.10;99.90
2447;DHT22;26430;48.818;9.244;2023-08-06T10:52:34;16.10;99.90
2447;DHT22;26430;48.818;9.244;2023-08-06T10:55:00;16.20;99.90
2447;DHT22;26430;48.818;9.244;2023-08-06T10:57:25;16.20;99.90
2447;DHT22;26430;48.818;9.244;2023-08-06T10:59:51;16.00;99.90
2447;DHT22;26430;48.818;9.244;2023-08-06T11:02:17;16.00;99.90
2447;DHT22;26430;48.818;9.244;2023-08-06T11:04:42;16.00;99.90
2447;DHT22;26430;48.818;9.244;2023-08-06T11:07:08;15.90;99.90
2447;DHT22;26430;48.818;9.244;2023-08-06T11:09:33;15.50;99.90
2447;DHT22;26430;48.818;9.244;2023-08-06T11:11:59;15.20;99.90
2447;DHT22;26430;48.818;9.244;2023-08-06T11:14:24;15.20;99.90
2447;DHT22;26430;48.818;9.244;2023-08-06T11:16:50;15.30;99.90
2447;DHT22;26430;48.818;9.244;2023-08-06T11:19:16;15.10;99.90
2447;DHT22;26430;48.818;9.244;2023-08-06T11:21:43;15.10;99.90
2447;DHT22;26430;48.818;9.244;2023-08-06T11:24:12;15.10;99.90
2447;DHT22;26430;48.818;9.244;2023-08-06T11:26:38;15.20;99.90
2447;DHT22;26430;48.818;9.244;2023-08-06T11:29:05;15.20;99.90
2447;DHT22;26430;48.818;9.244;2023-08-06T11:31:31;15.20;99.90
2447;DHT22;26430;48.818;9.244;2023-08-06T11:33:56;15.20;99.90
2447;DHT22;26430;48.818;9.244;2023-08-06T11:36:32;15.20;99.90
2447;DHT22;26430;48.818;9.244;2023-08-06T11:39:02;15.20;99.90
2447;DHT22;26430;48.818;9.244;2023-08-06T11:41:31;15.30;99.90
2447;DHT22;26430;48.818;9.244;2023-08-06T11:43:58;15.20;99.90
2447;DHT22;26430;48.818;9.244;2023-08-06T11:46:24;15.30;99.90
2447;DHT22;26430;48.818;9.244;2023-08-06T11:48:55;15.30;99.90
2447;DHT22;26430;48.818;9.244;2023-08-06T11:51:24;15.30;99.90
2447;DHT22;26430;48.818;9.244;2023-08-06T11:53:55;15.30;99.90
2447;DHT22;26430;48.818;9.244;2023-08-06T11:56:21;15.20;99.90
2447;DHT22;26430;48.818;9.244;2023-08-06T11:58:47;15.00;99.90
2447;DHT22;26430;48.818;9.244;2023-08-06T12:01:13;14.90;99.90
2447;DHT22;26430;48.818;9.244;2023-08-06T12:03:40;14.90;99.90
2447;DHT22;26430;48.818;9.244;2023-08-06T12:06:06;14.70;99.90
2447;DHT22;26430;48.818;9.244;2023-08-06T12:08:32;14.60;99.90
2447;DHT22;26430;48.818;9.244;2023-08-06T12:10:58;14.50;99.90
2447;DHT22;26430;48.818;9.244;2023-08-06T12:13:24;14.40;99.90
2447;DHT22;26430;48.818;9.244;2023-08-06T12:15:50;14.30;99.90
2447;DHT22;26430;48.818;9.244;2023-08-06T12:18:18;14.20;99.90
2447;DHT22;26430;48.818;9.244;2023-08-06T12:20:43;14.10;99.90
2447;DHT22;26430;48.818;9.244;2023-08-06T12:23:09;14.00;99.90
2447;DHT22;26430;48.818;9.244;2023-08-06T12:25:35;14.10;99.90
2447;DHT22;26430;48.818;9.244;2023-08-06T12:28:01;14.10;99.90
2447;DHT22;26430;48.818;9.244;2023-08-06T12:30:26;14.10;99.90
2447;DHT22;26430;48.818;9.244;2023-08-06T12:32:52;14.10;99.90
2447;DHT22;26430;48.818;9.244;2023-08-06T12:35:17;14.10;99.90
2447;DHT22;26430;48.818;9.244;2023-08-06T12:37:43;14.20;99.90
2447;DHT22;26430;48.818;9.244;2023-08-06T12:40:10;14.30;99.90
2447;DHT22;26430;48.818;9.244;2023-08-06T12:42:36;14.30;99.90
2447;DHT22;26430;48.818;9.244;2023-08-06T12:45:02;14.50;99.90
2447;DHT22;26430;48.818;9.244;2023-08-06T12:47:28;14.70;99.90
2447;DHT22;26430;48.818;9.244;2023-08-06T12:49:53;14.80;99.90
2447;DHT22;26430;48.818;9.244;2023-08-06T12:52:19;15.00;99.90
2447;DHT22;26430;48.818;9.244;2023-08-06T12:54:45;15.10;99.90
2447;DHT22;26430;48.818;9.244;2023-08-06T12:57:11;15.30;99.90
2447;DHT22;26430;48.818;9.244;2023-08-06T12:59:37;15.50;99.90
2447;DHT22;26430;48.818;9.244;2023-08-06T13:02:03;15.60;99.90
2447;DHT22;26430;48.818;9.244;2023-08-06T13:04:28;15.60;99.90
2447;DHT22;26430;48.818;9.244;2023-08-06T13:06:54;15.60;99.90
2447;DHT22;26430;48.818;9.244;2023-08-06T13:09:20;15.50;99.90
2447;DHT22;26430;48.818;9.244;2023-08-06T13:11:45;15.50;99.90
2447;DHT22;26430;48.818;9.244;2023-08-06T13:14:13;15.70;99.90
2447;DHT22;26430;48.818;9.244;2023-08-06T13:16:40;15.70;99.90
2447;DHT22;26430;48.818;9.244;2023-08-06T13:19:07;15.90;99.90
2447;DHT22;26430;48.818;9.244;2023-08-06T13:21:34;15.90;99.90
2447;DHT22;26430;48.818;9.244;2023-08-06T13:24:00;16.00;99.90
2447;DHT22;26430;48.818;9.244;2023-08-06T13:26:27;16.00;99.90
2447;DHT22;26430;48.818;9.244;2023-08-06T13:28:52;16.00;99.90
2447;DHT22;26430;48.818;9.244;2023-08-06T13:31:18;16.00;99.90
2447;DHT22;26430;48.818;9.244;2023-08-06T13:33:43;16.00;99.90
2447;DHT22;26430;48.818;9.244;2023-08-06T13:36:09;16.20;99.90
2447;DHT22;26430;48.818;9.244;2023-08-06T13:38:34;16.40;99.90
2447;DHT22;26430;48.818;9.244;2023-08-06T13:41:01;16.40;99.90
2447;DHT22;26430;48.818;9.244;2023-08-06T13:43:26;16.50;99.90
2447;DHT22;26430;48.818;9.244;2023-08-06T13:45:53;16.60;99.90
2447;DHT22;26430;48.818;9.244;2023-08-06T13:48:18;16.40;99.90
2447;DHT22;26430;48.818;9.244;2023-08-06T13:50:44;16.30;99.90
2447;DHT22;26430;48.818;9.244;2023-08-06T13:53:10;16.40;99.90
2447;DHT22;26430;48.818;9.244;2023-08-06T13:55:36;16.40;99.90
2447;DHT22;26430;48.818;9.244;2023-08-06T13:58:01;16.50;99.90
2447;DHT22;26430;48.818;9.244;2023-08-06T14:00:27;16.50;99.90
2447;DHT22;26430;48.818;9.244;2023-08-06T14:02:52;16.50;99.90
2447;DHT22;26430;48.818;9.244;2023-08-06T14:05:18;16.30;99.90
2447;DHT22;26430;48.818;9.244;2023-08-06T14:07:43;16.00;99.90
2447;DHT22;26430;48.818;9.244;2023-08-06T14:10:09;16.20;99.90
2447;DHT22;26430;48.818;9.244;2023-08-06T14:12:35;16.10;99.90
2447;DHT22;26430;48.818;9.244;2023-08-06T14:15:01;16.00;99.90
2447;DHT22;26430;48.818;9.244;2023-08-06T14:17:28;16.10;99.90
2447;DHT22;26430;48.818;9.244;2023-08-06T14:19:54;16.10;99.90
2447;DHT22;26430;48.818;9.244;2023-08-06T14:22:19;15.90;99.90
2447;DHT22;26430;48.818;9.244;2023-08-06T14:24:45;15.90;99.90
2447;DHT22;26430;48.818;9.244;2023-08-06T14:27:12;15.70;99.90
2447;DHT22;26430;48.818;9.244;2023-08-06T14:29:38;15.80;99.90
2447;DHT22;26430;48.818;9.244;2023-08-06T14:32:04;15.90;99.90
2447;DHT22;26430;48.818;9.244;2023-08-06T14:34:29;16.00;99.90
2447;DHT22;26430;48.818;9.244;2023-08-06T14:36:55;16.10;99.90
2447;DHT22;26430;48.818;9.244;2023-08-06T14:39:20;16.30;99.90
2447;DHT22;26430;48.818;9.244;2023-08-06T14:41:46;16.30;99.90
2447;DHT22;26430;48.818;9.244;2023-08-06T14:44:12;16.40;99.90
2447;DHT22;26430;48.818;9.244;2023-08-06T14:46:38;16.60;99.90
2447;DHT22;26430;48.818;9.244;2023-08-06T14:49:03;16.70;99.90
2447;DHT22;26430;48.818;9.244;2023-08-06T14:51:29;16.70;99.90
2447;DHT22;26430;48.818;9.244;2023-08-06T14:53:54;16.70;99.90
2447;DHT22;26430;48.818;9.244;2023-08-06T14:56:20;16.70;99.90
2447;DHT22;26430;48.818;9.244;2023-08-06T14:58:45;16.50;99.90
2447;DHT22;26430;48.818;9.244;2023-08-06T15:01:12;16.30;99.90
2447;DHT22;26430;48.818;9.244;2023-08-06T15:03:37;16.00;99.90
2447;DHT22;26430;48.818;9.244;2023-08-06T15:06:03;15.90;99.90
2447;DHT22;26430;48.818;9.244;2023-08-06T15:08:28;15.80;99.90
2447;DHT22;26430;48.818;9.244;2023-08-06T15:10:54;15.80;99.90
2447;DHT22;26430;48.818;9.244;2023-08-06T15:13:20;15.60;99.90
2447;DHT22;26430;48.818;9.244;2023-08-06T15:15:55;15.70;99.90
2447;DHT22;26430;48.818;9.244;2023-08-06T15:18:20;15.70;99.90
2447;DHT22;26430;48.818;9.244;2023-08-06T15:20:46;15.70;99.90
2447;DHT22;26430;48.818;9.244;2023-08-06T15:23:11;15.80;99.90
2447;DHT22;26430;48.818;9.244;2023-08-06T15:25:37;15.70;99.90
2447;DHT22;26430;48.818;9.244;2023-08-06T15:28:03;15.80;99.90
2447;DHT22;26430;48.818;9.244;2023-08-06T15:30:29;15.90;99.90
2447;DHT22;26430;48.818;9.244;2023-08-06T15:32:54;15.80;99.90
2447;DHT22;26430;48.818;9.244;2023-08-06T15:35:20;15.90;99.90
2447;DHT22;26430;48.818;9.244;2023-08-06T15:37:45;16.00;99.90
2447;DHT22;26430;48.818;9.244;2023-08-06T15:40:11;16.10;99.90
2447;DHT22;26430;48.818;9.244;2023-08-06T15:42:37;16.20;99.90
2447;DHT22;26430;48.818;9.244;2023-08-06T15:45:02;16.20;99.90
2447;DHT22;26430;48.818;9.244;2023-08-06T15:47:28;16.20;99.90
2447;DHT22;26430;48.818;9.244;2023-08-06T15:49:55;16.20;99.90